| time (UTC) | temp F | wind direction | speed MPH | gust MPH | rain 1hr in | rain 24hr in | rain mn in | humidity % | barometer mb |
| 20260509045156 | 47 | 191 | 0.0 | 0.0 | 0.00 | 0.00 | 0.00 | 61 | 1018.1 |
| 20260509044654 | 48 | 187 | 0.0 | 0.0 | 0.00 | 0.00 | 0.00 | 54 | 1018.1 |
| 20260509044151 | 48 | 178 | 0.0 | 0.0 | 0.00 | 0.00 | 0.00 | 58 | 1017.9 |
| 20260509043647 | 49 | 159 | 0.0 | 0.0 | 0.00 | 0.00 | 0.00 | 59 | 1018.2 |
| 20260509043143 | 50 | 157 | 0.0 | 0.0 | 0.00 | 0.00 | 0.00 | 61 | 1018.0 |
| 20260509042640 | 51 | 181 | 0.0 | 0.0 | 0.00 | 0.00 | 0.00 | 46 | 1018.0 |
| 20260509042135 | 52 | 181 | 0.0 | 0.0 | 0.00 | 0.00 | 0.00 | 44 | 1017.9 |
| 20260509041632 | 51 | 180 | 0.0 | 0.0 | 0.00 | 0.00 | 0.00 | 43 | 1017.9 |
| 20260509041130 | 52 | 180 | 0.0 | 0.0 | 0.00 | 0.00 | 0.00 | 43 | 1018.1 |
| 20260509040628 | 51 | 224 | 0.0 | 0.0 | 0.00 | 0.00 | 0.00 | 44 | 1018.0 |
| 20260509040125 | 51 | 205 | 0.0 | 0.0 | 0.00 | 0.00 | 0.00 | 48 | 1017.6 |
| 20260509035622 | 52 | 152 | 0.0 | 1.0 | 0.00 | 0.00 | 0.00 | 46 | 1017.6 |
| 20260509035118 | 52 | 217 | 0.0 | 0.0 | 0.00 | 0.00 | 0.00 | 45 | 1017.6 |
| 20260509034616 | 53 | 112 | 0.0 | 0.0 | 0.00 | 0.00 | 0.00 | 49 | 1017.5 |
| 20260509034113 | 53 | 138 | 0.0 | 0.0 | 0.00 | 0.00 | 0.00 | 50 | 1017.8 |
| 20260509033610 | 53 | 152 | 0.0 | 0.0 | 0.00 | 0.00 | 0.00 | 45 | 1017.4 |
| 20260509033107 | 53 | 219 | 0.0 | 0.0 | 0.00 | 0.00 | 0.00 | 42 | 1017.0 |
| 20260509032604 | 54 | 122 | 0.0 | 0.0 | 0.00 | 0.00 | 0.00 | 51 | 1017.3 |
| 20260509032101 | 53 | 189 | 0.0 | 0.0 | 0.00 | 0.00 | 0.00 | 43 | 1017.0 |
| 20260509031559 | 53 | 122 | 0.0 | 0.0 | 0.00 | 0.00 | 0.00 | 51 | 1016.9 |
| 20260509031056 | 54 | 145 | 0.0 | 0.0 | 0.00 | 0.00 | 0.00 | 54 | 1017.0 |
| 20260509030554 | 54 | 179 | 0.0 | 0.0 | 0.00 | 0.00 | 0.00 | 52 | 1016.8 |
| 20260509030050 | 55 | 108 | 0.0 | 1.0 | 0.00 | 0.00 | 0.00 | 54 | 1016.9 |
| 20260509025547 | 55 | 146 | 0.0 | 0.0 | 0.00 | 0.00 | 0.00 | 45 | 1016.7 |
| 20260509025042 | 56 | 145 | 0.0 | 0.0 | 0.00 | 0.00 | 0.00 | 49 | 1016.4 |
| 20260509024538 | 57 | 135 | 0.0 | 0.0 | 0.00 | 0.00 | 0.00 | 54 | 1016.7 |
| 20260509024035 | 57 | 157 | 0.0 | 0.0 | 0.00 | 0.00 | 0.00 | 48 | 1016.5 |
| 20260509023533 | 58 | 176 | 0.0 | 0.0 | 0.00 | 0.00 | 0.00 | 41 | 1016.5 |
| 20260509023029 | 59 | 152 | 0.0 | 0.0 | 0.00 | 0.00 | 0.00 | 41 | 1016.3 |
| 20260509022526 | 61 | 198 | 0.0 | 0.0 | 0.00 | 0.00 | 0.00 | 34 | 1016.2 |
| 20260509022024 | 62 | 219 | 0.0 | 0.0 | 0.00 | 0.00 | 0.00 | 34 | 1016.3 |
| 20260509021521 | 64 | 198 | 0.0 | 0.0 | 0.00 | 0.00 | 0.00 | 32 | 1016.0 |
| 20260509021017 | 64 | 213 | 0.0 | 0.0 | 0.00 | 0.00 | 0.00 | 30 | 1016.2 |
| 20260509020516 | 64 | 213 | 0.0 | 1.0 | 0.00 | 0.00 | 0.00 | 30 | 1015.7 |
| 20260509020012 | 65 | 213 | 0.0 | 0.0 | 0.00 | 0.00 | 0.00 | 29 | 1015.4 |
| 20260509015511 | 66 | 220 | 0.0 | 0.0 | 0.00 | 0.00 | 0.00 | 28 | 1015.6 |
| 20260509015008 | 68 | 196 | 0.0 | 0.0 | 0.00 | 0.00 | 0.00 | 26 | 1015.6 |
| 20260509014505 | 69 | 224 | 0.0 | 0.0 | 0.00 | 0.00 | 0.00 | 24 | 1015.4 |
| 20260509014001 | 70 | 214 | 0.0 | 0.0 | 0.00 | 0.00 | 0.00 | 23 | 1015.3 |
| 20260509013458 | 70 | 248 | 1.0 | 2.0 | 0.00 | 0.00 | 0.00 | 21 | 1015.7 |
| 20260509012953 | 70 | 123 | 0.0 | 1.0 | 0.00 | 0.00 | 0.00 | 21 | 1015.4 |
| 20260509012450 | 71 | 153 | 0.0 | 1.0 | 0.00 | 0.00 | 0.00 | 22 | 1015.6 |
| 20260509011947 | 71 | 196 | 1.0 | 1.0 | 0.00 | 0.00 | 0.00 | 21 | 1015.1 |
| 20260509011445 | 72 | 183 | 1.0 | 2.0 | 0.00 | 0.00 | 0.00 | 20 | 1015.4 |
| 20260509010942 | 72 | 203 | 0.0 | 0.0 | 0.00 | 0.00 | 0.00 | 20 | 1015.1 |
| 20260509010440 | 73 | 287 | 2.0 | 3.0 | 0.00 | 0.00 | 0.00 | 19 | 1014.9 |
| 20260509005936 | 73 | 117 | 1.0 | 2.0 | 0.00 | 0.00 | 0.00 | 19 | 1015.1 |
| 20260509005434 | 73 | 259 | 2.0 | 3.0 | 0.00 | 0.00 | 0.00 | 19 | 1014.9 |
| 20260509004928 | 74 | 54 | 0.0 | 1.0 | 0.00 | 0.00 | 0.00 | 19 | 1015.2 |
| 20260509004426 | 74 | 145 | 1.0 | 2.0 | 0.00 | 0.00 | 0.00 | 19 | 1015.1 |
| 20260509003924 | 74 | 233 | 2.0 | 5.0 | 0.00 | 0.00 | 0.00 | 20 | 1014.9 |
| 20260509003421 | 76 | 120 | 1.0 | 1.0 | 0.00 | 0.00 | 0.00 | 19 | 1014.9 |
| 20260509002917 | 76 | 191 | 0.0 | 0.0 | 0.00 | 0.00 | 0.00 | 19 | 1014.9 |
| 20260509002416 | 76 | 354 | 3.0 | 5.0 | 0.00 | 0.00 | 0.00 | 19 | 1014.8 |
| 20260509001912 | 74 | 235 | 1.0 | 1.0 | 0.00 | 0.00 | 0.00 | 20 | 1014.7 |
| 20260509001408 | 75 | 182 | 0.0 | 1.0 | 0.00 | 0.00 | 0.00 | 20 | 1014.9 |
| 20260509000906 | 75 | 169 | 2.0 | 3.0 | 0.00 | 0.00 | 0.00 | 18 | 1014.8 |
| 20260509000404 | 76 | 202 | 1.0 | 2.0 | 0.00 | 0.00 | 0.00 | 19 | 1014.6 |
| 20260508235859 | 76 | 306 | 1.0 | 2.0 | 0.00 | 0.00 | 0.00 | 20 | 1014.8 |
| 20260508235357 | 77 | 287 | 1.0 | 2.0 | 0.00 | 0.00 | 0.00 | 19 | 1014.6 |
| 20260508234854 | 77 | 132 | 2.0 | 3.0 | 0.00 | 0.00 | 0.00 | 20 | 1014.6 |
| 20260508234350 | 78 | 45 | 2.0 | 3.0 | 0.00 | 0.00 | 0.00 | 18 | 1014.3 |
| 20260508233849 | 78 | 139 | 1.0 | 2.0 | 0.00 | 0.00 | 0.00 | 19 | 1014.7 |
| 20260508233348 | 77 | 102 | 1.0 | 1.0 | 0.00 | 0.00 | 0.00 | 21 | 1014.5 |
| 20260508232844 | 78 | 272 | 1.0 | 1.0 | 0.00 | 0.00 | 0.00 | 18 | 1014.8 |
| 20260508232340 | 78 | 84 | 1.0 | 1.0 | 0.00 | 0.00 | 0.00 | 21 | 1014.7 |
| 20260508231839 | 78 | 105 | 1.0 | 1.0 | 0.00 | 0.00 | 0.00 | 21 | 1014.5 |
| 20260508231335 | 78 | 261 | 1.0 | 1.0 | 0.00 | 0.00 | 0.00 | 20 | 1014.6 |
| 20260508230832 | 79 | 250 | 1.0 | 1.0 | 0.00 | 0.00 | 0.00 | 21 | 1014.7 |
| 20260508230328 | 77 | 291 | 6.0 | 7.0 | 0.00 | 0.00 | 0.00 | 19 | 1014.2 |
| 20260508225826 | 80 | 169 | 3.0 | 3.0 | 0.00 | 0.00 | 0.00 | 18 | 1014.7 |
| 20260508225322 | 80 | 190 | 4.0 | 5.0 | 0.00 | 0.00 | 0.00 | 18 | 1014.5 |
| 20260508224820 | 78 | 147 | 1.0 | 1.0 | 0.00 | 0.00 | 0.00 | 19 | 1014.3 |
| 20260508224317 | 82 | 20 | 4.0 | 6.0 | 0.00 | 0.00 | 0.00 | 19 | 1014.7 |
| 20260508223815 | 81 | 166 | 3.0 | 5.0 | 0.00 | 0.00 | 0.00 | 18 | 1014.3 |
| 20260508223312 | 82 | 49 | 2.0 | 2.0 | 0.00 | 0.00 | 0.00 | 18 | 1014.5 |
| 20260508222810 | 81 | 144 | 1.0 | 2.0 | 0.00 | 0.00 | 0.00 | 17 | 1014.5 |
| 20260508222307 | 78 | 113 | 0.0 | 1.0 | 0.00 | 0.00 | 0.00 | 19 | 1014.3 |
| 20260508221803 | 79 | 246 | 6.0 | 10.0 | 0.00 | 0.00 | 0.00 | 18 | 1014.7 |
| 20260508221259 | 80 | 62 | 2.0 | 2.0 | 0.00 | 0.00 | 0.00 | 19 | 1014.6 |
| 20260508220755 | 79 | 253 | 2.0 | 5.0 | 0.00 | 0.00 | 0.00 | 18 | 1014.7 |
| 20260508220252 | 79 | 264 | 2.0 | 2.0 | 0.00 | 0.00 | 0.00 | 19 | 1014.8 |
| 20260508215748 | 79 | 90 | 2.0 | 2.0 | 0.00 | 0.00 | 0.00 | 22 | 1014.8 |
| 20260508215245 | 79 | 151 | 5.0 | 6.0 | 0.00 | 0.00 | 0.00 | 19 | 1014.8 |
| 20260508214743 | 77 | 37 | 5.0 | 7.0 | 0.00 | 0.00 | 0.00 | 20 | 1014.9 |
| 20260508214240 | 75 | 71 | 1.0 | 1.0 | 0.00 | 0.00 | 0.00 | 24 | 1014.9 |
| 20260508213736 | 75 | 77 | 1.0 | 2.0 | 0.00 | 0.00 | 0.00 | 21 | 1014.9 |
| 20260508213233 | 76 | 0 | 6.0 | 8.0 | 0.00 | 0.00 | 0.00 | 19 | 1015.1 |
| 20260508212729 | 77 | 226 | 1.0 | 1.0 | 0.00 | 0.00 | 0.00 | 18 | 1015.1 |
| 20260508212226 | 77 | 138 | 3.0 | 6.0 | 0.00 | 0.00 | 0.00 | 18 | 1015.1 |
| 20260508211721 | 77 | 91 | 0.0 | 0.0 | 0.00 | 0.00 | 0.00 | 18 | 1015.1 |
| 20260508211217 | 77 | 100 | 3.0 | 3.0 | 0.00 | 0.00 | 0.00 | 22 | 1014.9 |
| 20260508210715 | 76 | 167 | 1.0 | 1.0 | 0.00 | 0.00 | 0.00 | 18 | 1015.1 |
| 20260508210212 | 77 | 246 | 2.0 | 2.0 | 0.00 | 0.00 | 0.00 | 18 | 1015.1 |
| 20260508205709 | 77 | 195 | 2.0 | 2.0 | 0.00 | 0.00 | 0.00 | 22 | 1015.4 |
| 20260508205205 | 79 | 96 | 1.0 | 1.0 | 0.00 | 0.00 | 0.00 | 20 | 1014.8 |
| 20260508204701 | 78 | 155 | 0.0 | 1.0 | 0.00 | 0.00 | 0.00 | 21 | 1015.1 |
| 20260508204158 | 76 | 204 | 1.0 | 1.0 | 0.00 | 0.00 | 0.00 | 20 | 1015.3 |
| 20260508203654 | 78 | 20 | 2.0 | 2.0 | 0.00 | 0.00 | 0.00 | 25 | 1015.3 |
| 20260508203150 | 76 | 305 | 4.0 | 6.0 | 0.00 | 0.00 | 0.00 | 21 | 1015.4 |
| 20260508202646 | 77 | 166 | 0.0 | 0.0 | 0.00 | 0.00 | 0.00 | 21 | 1015.6 |
| 20260508202144 | 78 | 45 | 7.0 | 9.0 | 0.00 | 0.00 | 0.00 | 19 | 1015.3 |
| 20260508201640 | 81 | 233 | 5.0 | 8.0 | 0.00 | 0.00 | 0.00 | 18 | 1015.4 |
| 20260508201137 | 80 | 107 | 1.0 | 1.0 | 0.00 | 0.00 | 0.00 | 19 | 1015.6 |
| 20260508200634 | 79 | 49 | 2.0 | 2.0 | 0.00 | 0.00 | 0.00 | 22 | 1015.6 |
| 20260508200130 | 78 | 248 | 6.0 | 11.0 | 0.00 | 0.00 | 0.00 | 18 | 1015.8 |
| 20260508195627 | 77 | 135 | 1.0 | 1.0 | 0.00 | 0.00 | 0.00 | 21 | 1015.6 |
| 20260508195123 | 77 | 203 | 0.0 | 1.0 | 0.00 | 0.00 | 0.00 | 20 | 1015.6 |
| 20260508194620 | 78 | 26 | 3.0 | 5.0 | 0.00 | 0.00 | 0.00 | 20 | 1015.6 |
| 20260508194117 | 77 | 97 | 5.0 | 6.0 | 0.00 | 0.00 | 0.00 | 21 | 1015.4 |
| 20260508193614 | 78 | 308 | 1.0 | 1.0 | 0.00 | 0.00 | 0.00 | 20 | 1015.2 |
| 20260508193110 | 79 | 20 | 3.0 | 3.0 | 0.00 | 0.00 | 0.00 | 19 | 1015.7 |
| 20260508192607 | 78 | 212 | 3.0 | 3.0 | 0.00 | 0.00 | 0.00 | 18 | 1015.9 |
| 20260508192104 | 79 | 253 | 5.0 | 8.0 | 0.00 | 0.00 | 0.00 | 17 | 1015.7 |
| 20260508191601 | 78 | 257 | 5.0 | 7.0 | 0.00 | 0.00 | 0.00 | 19 | 1015.7 |
| 20260508191058 | 78 | 177 | 3.0 | 5.0 | 0.00 | 0.00 | 0.00 | 19 | 1015.8 |
| 20260508190555 | 77 | 138 | 2.0 | 3.0 | 0.00 | 0.00 | 0.00 | 18 | 1015.6 |
| 20260508190051 | 75 | 140 | 1.0 | 2.0 | 0.00 | 0.00 | 0.00 | 18 | 1015.8 |
| 20260508185549 | 77 | 352 | 5.0 | 7.0 | 0.00 | 0.00 | 0.00 | 19 | 1015.8 |
| 20260508185046 | 78 | 237 | 2.0 | 2.0 | 0.00 | 0.00 | 0.00 | 18 | 1015.9 |
| 20260508184543 | 76 | 243 | 6.0 | 8.0 | 0.00 | 0.00 | 0.00 | 19 | 1015.9 |
| 20260508184040 | 75 | 253 | 4.0 | 6.0 | 0.00 | 0.00 | 0.00 | 19 | 1016.2 |
| 20260508183536 | 76 | 189 | 3.0 | 6.0 | 0.00 | 0.00 | 0.00 | 18 | 1016.0 |
| 20260508183032 | 75 | 90 | 1.0 | 3.0 | 0.00 | 0.00 | 0.00 | 20 | 1016.3 |
| 20260508182529 | 75 | 63 | 0.0 | 0.0 | 0.00 | 0.00 | 0.00 | 22 | 1016.3 |
| 20260508182026 | 77 | 340 | 2.0 | 3.0 | 0.00 | 0.00 | 0.00 | 20 | 1016.4 |
| 20260508181521 | 76 | 53 | 1.0 | 1.0 | 0.00 | 0.00 | 0.00 | 21 | 1016.4 |
| 20260508181019 | 74 | 105 | 0.0 | 0.0 | 0.00 | 0.00 | 0.00 | 26 | 1016.5 |
| 20260508180515 | 75 | 60 | 1.0 | 1.0 | 0.00 | 0.00 | 0.00 | 23 | 1016.5 |
| 20260508180011 | 74 | 118 | 0.0 | 1.0 | 0.00 | 0.00 | 0.00 | 26 | 1016.8 |
| 20260508175508 | 74 | 316 | 1.0 | 1.0 | 0.00 | 0.00 | 0.00 | 24 | 1016.5 |
| 20260508175006 | 75 | 259 | 5.0 | 7.0 | 0.00 | 0.00 | 0.00 | 20 | 1016.3 |
| 20260508174503 | 74 | 134 | 2.0 | 3.0 | 0.00 | 0.00 | 0.00 | 24 | 1016.8 |
| 20260508174000 | 74 | 189 | 3.0 | 5.0 | 0.00 | 0.00 | 0.00 | 21 | 1016.5 |
| 20260508173457 | 74 | 207 | 2.0 | 3.0 | 0.00 | 0.00 | 0.00 | 21 | 1016.8 |
| 20260508172953 | 71 | 97 | 0.0 | 0.0 | 0.00 | 0.00 | 0.00 | 24 | 1016.8 |
| 20260508172450 | 72 | 190 | 3.0 | 5.0 | 0.00 | 0.00 | 0.00 | 20 | 1016.7 |
| 20260508171946 | 73 | 89 | 2.0 | 3.0 | 0.00 | 0.00 | 0.00 | 22 | 1016.9 |
| 20260508171443 | 72 | 260 | 2.0 | 3.0 | 0.00 | 0.00 | 0.00 | 24 | 1016.5 |
| 20260508170939 | 71 | 107 | 0.0 | 1.0 | 0.00 | 0.00 | 0.00 | 23 | 1016.7 |
| 20260508170437 | 71 | 55 | 3.0 | 6.0 | 0.00 | 0.00 | 0.00 | 28 | 1016.5 |
| 20260508165933 | 71 | 192 | 5.0 | 7.0 | 0.00 | 0.00 | 0.00 | 25 | 1016.9 |
| 20260508165432 | 70 | 26 | 0.0 | 1.0 | 0.00 | 0.00 | 0.00 | 27 | 1017.0 |
| 20260508164927 | 69 | 39 | 1.0 | 2.0 | 0.00 | 0.00 | 0.00 | 29 | 1017.0 |
| 20260508164424 | 69 | 120 | 2.0 | 2.0 | 0.00 | 0.00 | 0.00 | 30 | 1017.1 |
| 20260508163922 | 69 | 104 | 0.0 | 0.0 | 0.00 | 0.00 | 0.00 | 37 | 1017.5 |
| 20260508163419 | 69 | 121 | 1.0 | 1.0 | 0.00 | 0.00 | 0.00 | 33 | 1017.5 |
| 20260508162914 | 69 | 138 | 0.0 | 0.0 | 0.00 | 0.00 | 0.00 | 33 | 1017.6 |
| 20260508162412 | 68 | 207 | 0.0 | 0.0 | 0.00 | 0.00 | 0.00 | 29 | 1017.4 |
| 20260508161909 | 67 | 99 | 3.0 | 3.0 | 0.00 | 0.00 | 0.00 | 35 | 1017.6 |
| 20260508161406 | 66 | 295 | 2.0 | 2.0 | 0.00 | 0.00 | 0.00 | 31 | 1017.8 |
| 20260508160903 | 65 | 175 | 1.0 | 1.0 | 0.00 | 0.00 | 0.00 | 32 | 1017.8 |
| 20260508160403 | 64 | 97 | 0.0 | 0.0 | 0.00 | 0.00 | 0.00 | 34 | 1017.8 |
| 20260508155858 | 63 | 77 | 0.0 | 0.0 | 0.00 | 0.00 | 0.00 | 36 | 1018.0 |
| 20260508155355 | 64 | 78 | 0.0 | 1.0 | 0.00 | 0.00 | 0.00 | 39 | 1017.6 |
| 20260508154852 | 63 | 165 | 0.0 | 0.0 | 0.00 | 0.00 | 0.00 | 34 | 1018.1 |
| 20260508154350 | 62 | 70 | 1.0 | 1.0 | 0.00 | 0.00 | 0.00 | 35 | 1018.4 |
| 20260508153846 | 62 | 132 | 1.0 | 2.0 | 0.00 | 0.00 | 0.00 | 33 | 1018.0 |
| 20260508153343 | 63 | 92 | 2.0 | 2.0 | 0.00 | 0.00 | 0.00 | 35 | 1018.1 |
| 20260508152839 | 62 | 193 | 0.0 | 1.0 | 0.00 | 0.00 | 0.00 | 37 | 1018.1 |
| 20260508152336 | 62 | 95 | 0.0 | 0.0 | 0.00 | 0.00 | 0.00 | 39 | 1018.2 |
| 20260508151832 | 62 | 83 | 0.0 | 0.0 | 0.00 | 0.00 | 0.00 | 39 | 1018.2 |
| 20260508151329 | 61 | 174 | 0.0 | 0.0 | 0.00 | 0.00 | 0.00 | 36 | 1018.4 |
| 20260508150825 | 60 | 138 | 0.0 | 0.0 | 0.00 | 0.00 | 0.00 | 42 | 1018.5 |
| 20260508150322 | 59 | 246 | 1.0 | 1.0 | 0.00 | 0.00 | 0.00 | 39 | 1018.6 |
| 20260508145813 | 57 | 127 | 0.0 | 0.0 | 0.00 | 0.00 | 0.00 | 45 | 1018.5 |
| 20260508145309 | 56 | 116 | 0.0 | 0.0 | 0.00 | 0.00 | 0.00 | 46 | 1018.7 |
| 20260508144806 | 55 | 108 | 0.0 | 0.0 | 0.00 | 0.00 | 0.00 | 45 | 1018.7 |
| 20260508144304 | 54 | 150 | 1.0 | 1.0 | 0.00 | 0.00 | 0.00 | 46 | 1018.7 |
| 20260508143801 | 54 | 87 | 1.0 | 2.0 | 0.00 | 0.00 | 0.00 | 48 | 1019.0 |
| 20260508143258 | 55 | 106 | 1.0 | 1.0 | 0.00 | 0.00 | 0.00 | 46 | 1019.3 |
| 20260508142754 | 55 | 144 | 0.0 | 0.0 | 0.00 | 0.00 | 0.00 | 49 | 1019.2 |
| 20260508142252 | 54 | 139 | 0.0 | 0.0 | 0.00 | 0.00 | 0.00 | 52 | 1019.0 |
| 20260508141748 | 53 | 123 | 0.0 | 0.0 | 0.00 | 0.00 | 0.00 | 51 | 1019.2 |
| 20260508141246 | 53 | 142 | 0.0 | 0.0 | 0.00 | 0.00 | 0.00 | 53 | 1019.2 |
| 20260508140743 | 52 | 121 | 0.0 | 0.0 | 0.00 | 0.00 | 0.00 | 52 | 1019.3 |
| 20260508140239 | 50 | 137 | 0.0 | 0.0 | 0.00 | 0.00 | 0.00 | 54 | 1019.1 |
| 20260508135735 | 49 | 175 | 0.0 | 0.0 | 0.00 | 0.00 | 0.00 | 61 | 1019.1 |
| 20260508135232 | 50 | 129 | 0.0 | 0.0 | 0.00 | 0.00 | 0.00 | 59 | 1019.1 |
| 20260508134727 | 49 | 134 | 0.0 | 0.0 | 0.00 | 0.00 | 0.00 | 59 | 1019.2 |
| 20260508134225 | 47 | 123 | 0.0 | 0.0 | 0.00 | 0.00 | 0.00 | 65 | 1019.3 |
| 20260508133721 | 45 | 128 | 0.0 | 0.0 | 0.00 | 0.00 | 0.00 | 68 | 1019.5 |
| 20260508133219 | 42 | 124 | 0.0 | 0.0 | 0.00 | 0.00 | 0.00 | 73 | 1019.5 |
| 20260508132717 | 39 | 106 | 0.0 | 0.0 | 0.00 | 0.00 | 0.00 | 81 | 1019.2 |
| 20260508132214 | 38 | 116 | 0.0 | 0.0 | 0.00 | 0.00 | 0.00 | 83 | 1019.5 |
| 20260508131709 | 37 | 157 | 0.0 | 0.0 | 0.00 | 0.00 | 0.00 | 84 | 1019.2 |
| 20260508131206 | 36 | 159 | 0.0 | 0.0 | 0.00 | 0.00 | 0.00 | 85 | 1019.1 |
| 20260508130703 | 36 | 122 | 0.0 | 0.0 | 0.00 | 0.00 | 0.00 | 85 | 1019.2 |
| 20260508130200 | 35 | 148 | 0.0 | 0.0 | 0.00 | 0.00 | 0.00 | 89 | 1019.1 |
| 20260508125655 | 34 | 142 | 0.0 | 0.0 | 0.00 | 0.00 | 0.00 | 90 | 1019.1 |
| 20260508125152 | 34 | 152 | 0.0 | 0.0 | 0.00 | 0.00 | 0.00 | 90 | 1019.3 |
| 20260508124650 | 34 | 147 | 0.0 | 0.0 | 0.00 | 0.00 | 0.00 | 89 | 1019.1 |
| 20260508124147 | 34 | 179 | 0.0 | 0.0 | 0.00 | 0.00 | 0.00 | 91 | 1019.0 |
| 20260508123645 | 34 | 142 | 0.0 | 0.0 | 0.00 | 0.00 | 0.00 | 91 | 1019.2 |
| 20260508123143 | 33 | 187 | 0.0 | 0.0 | 0.00 | 0.00 | 0.00 | 91 | 1019.1 |
| 20260508122639 | 33 | 187 | 0.0 | 0.0 | 0.00 | 0.00 | 0.00 | 90 | 1019.1 |
| 20260508122135 | 33 | 156 | 0.0 | 0.0 | 0.00 | 0.00 | 0.00 | 91 | 1019.1 |
| 20260508121634 | 33 | 156 | 0.0 | 0.0 | 0.00 | 0.00 | 0.00 | 91 | 1018.8 |
| 20260508121132 | 33 | 178 | 0.0 | 0.0 | 0.00 | 0.00 | 0.00 | 91 | 1018.7 |
| 20260508120629 | 33 | 174 | 0.0 | 0.0 | 0.00 | 0.00 | 0.00 | 91 | 1018.8 |
| 20260508120127 | 33 | 155 | 0.0 | 0.0 | 0.00 | 0.00 | 0.00 | 92 | 1019.0 |
| 20260508115625 | 32 | 169 | 0.0 | 0.0 | 0.00 | 0.00 | 0.00 | 90 | 1018.7 |
| 20260508115121 | 33 | 169 | 0.0 | 0.0 | 0.00 | 0.00 | 0.00 | 90 | 1019.0 |
| 20260508114618 | 33 | 144 | 0.0 | 0.0 | 0.00 | 0.00 | 0.00 | 90 | 1018.7 |
| 20260508114114 | 33 | 129 | 0.0 | 0.0 | 0.00 | 0.00 | 0.00 | 89 | 1018.7 |
| 20260508113612 | 34 | 129 | 0.0 | 0.0 | 0.00 | 0.00 | 0.00 | 89 | 1019.1 |
| 20260508113110 | 33 | 147 | 0.0 | 0.0 | 0.00 | 0.00 | 0.00 | 89 | 1019.0 |
| 20260508112605 | 34 | 155 | 0.0 | 0.0 | 0.00 | 0.00 | 0.00 | 89 | 1018.7 |
| 20260508112103 | 34 | 130 | 0.0 | 0.0 | 0.00 | 0.00 | 0.00 | 88 | 1019.2 |
| 20260508111559 | 34 | 125 | 0.0 | 0.0 | 0.00 | 0.00 | 0.00 | 87 | 1018.8 |
| 20260508111057 | 34 | 187 | 0.0 | 0.0 | 0.00 | 0.00 | 0.00 | 87 | 1019.0 |
| 20260508110554 | 34 | 159 | 0.0 | 0.0 | 0.00 | 0.00 | 0.00 | 88 | 1018.8 |
| 20260508110050 | 34 | 150 | 0.0 | 0.0 | 0.00 | 0.00 | 0.00 | 87 | 1019.0 |
| 20260508105545 | 34 | 116 | 0.0 | 0.0 | 0.00 | 0.00 | 0.00 | 87 | 1019.0 |
| 20260508105043 | 35 | 114 | 0.0 | 0.0 | 0.00 | 0.00 | 0.00 | 88 | 1018.8 |
| 20260508104541 | 35 | 177 | 0.0 | 0.0 | 0.00 | 0.00 | 0.00 | 84 | 1019.0 |
| 20260508104036 | 34 | 175 | 0.0 | 0.0 | 0.00 | 0.00 | 0.00 | 85 | 1019.0 |
| 20260508103534 | 34 | 146 | 0.0 | 0.0 | 0.00 | 0.00 | 0.00 | 85 | 1019.0 |
| 20260508103031 | 35 | 149 | 0.0 | 0.0 | 0.00 | 0.00 | 0.00 | 84 | 1018.8 |
| 20260508102529 | 35 | 149 | 0.0 | 0.0 | 0.00 | 0.00 | 0.00 | 84 | 1019.2 |
| 20260508102026 | 34 | 144 | 0.0 | 0.0 | 0.00 | 0.00 | 0.00 | 84 | 1018.7 |
| 20260508101524 | 35 | 144 | 0.0 | 0.0 | 0.00 | 0.00 | 0.00 | 85 | 1019.0 |
| 20260508101020 | 35 | 147 | 0.0 | 0.0 | 0.00 | 0.00 | 0.00 | 84 | 1018.8 |
| 20260508100519 | 35 | 182 | 0.0 | 0.0 | 0.00 | 0.00 | 0.00 | 84 | 1019.1 |
| 20260508100015 | 36 | 118 | 0.0 | 0.0 | 0.00 | 0.00 | 0.00 | 86 | 1019.0 |
| 20260508095512 | 36 | 98 | 1.0 | 1.0 | 0.00 | 0.00 | 0.00 | 84 | 1019.0 |
| 20260508095009 | 36 | 198 | 0.0 | 0.0 | 0.00 | 0.00 | 0.00 | 81 | 1018.6 |
| 20260508094506 | 36 | 198 | 0.0 | 0.0 | 0.00 | 0.00 | 0.00 | 80 | 1018.8 |
| 20260508094003 | 35 | 176 | 0.0 | 0.0 | 0.00 | 0.00 | 0.00 | 83 | 1018.6 |
| 20260508093500 | 36 | 149 | 0.0 | 0.0 | 0.00 | 0.00 | 0.00 | 86 | 1019.0 |
| 20260508092958 | 36 | 160 | 0.0 | 0.0 | 0.00 | 0.00 | 0.00 | 84 | 1019.1 |
| 20260508092455 | 36 | 160 | 0.0 | 0.0 | 0.00 | 0.00 | 0.00 | 83 | 1019.1 |
| 20260508091954 | 37 | 130 | 0.0 | 0.0 | 0.00 | 0.00 | 0.00 | 85 | 1018.5 |
| 20260508091450 | 37 | 164 | 0.0 | 0.0 | 0.00 | 0.00 | 0.00 | 80 | 1018.8 |
| 20260508090947 | 37 | 165 | 0.0 | 0.0 | 0.00 | 0.00 | 0.00 | 79 | 1019.0 |
| 20260508090446 | 36 | 144 | 0.0 | 0.0 | 0.00 | 0.00 | 0.00 | 80 | 1018.6 |
| 20260508085941 | 37 | 144 | 0.0 | 0.0 | 0.00 | 0.00 | 0.00 | 79 | 1018.8 |
| 20260508085438 | 37 | 144 | 0.0 | 0.0 | 0.00 | 0.00 | 0.00 | 79 | 1018.8 |
| 20260508084935 | 38 | 144 | 0.0 | 0.0 | 0.00 | 0.00 | 0.00 | 76 | 1019.0 |
| 20260508084431 | 38 | 162 | 0.0 | 0.0 | 0.00 | 0.00 | 0.00 | 76 | 1019.1 |
| 20260508083930 | 38 | 128 | 0.0 | 0.0 | 0.00 | 0.00 | 0.00 | 79 | 1019.0 |
| 20260508083427 | 38 | 199 | 0.0 | 0.0 | 0.00 | 0.00 | 0.00 | 75 | 1019.1 |
| 20260508082926 | 38 | 199 | 0.0 | 0.0 | 0.00 | 0.00 | 0.00 | 73 | 1019.0 |
| 20260508082424 | 38 | 178 | 0.0 | 0.0 | 0.00 | 0.00 | 0.00 | 80 | 1019.0 |
| 20260508081922 | 38 | 135 | 0.0 | 0.0 | 0.00 | 0.00 | 0.00 | 78 | 1018.8 |
| 20260508081418 | 38 | 135 | 0.0 | 0.0 | 0.00 | 0.00 | 0.00 | 77 | 1019.0 |
| 20260508080915 | 38 | 165 | 0.0 | 0.0 | 0.00 | 0.00 | 0.00 | 74 | 1018.8 |
| 20260508080413 | 39 | 149 | 0.0 | 0.0 | 0.00 | 0.00 | 0.00 | 73 | 1019.0 |
| 20260508075909 | 39 | 178 | 0.0 | 0.0 | 0.00 | 0.00 | 0.00 | 74 | 1019.1 |
| 20260508075407 | 39 | 129 | 0.0 | 0.0 | 0.00 | 0.00 | 0.00 | 76 | 1019.1 |
| 20260508074904 | 39 | 105 | 0.0 | 1.0 | 0.00 | 0.00 | 0.00 | 77 | 1019.2 |
| 20260508074401 | 39 | 128 | 0.0 | 0.0 | 0.00 | 0.00 | 0.00 | 72 | 1019.1 |
| 20260508073858 | 39 | 120 | 0.0 | 0.0 | 0.00 | 0.00 | 0.00 | 74 | 1019.2 |
| 20260508073356 | 40 | 120 | 0.0 | 0.0 | 0.00 | 0.00 | 0.00 | 75 | 1019.1 |
| 20260508072852 | 40 | 105 | 0.0 | 0.0 | 0.00 | 0.00 | 0.00 | 75 | 1019.0 |
| 20260508072349 | 40 | 171 | 0.0 | 0.0 | 0.00 | 0.00 | 0.00 | 67 | 1019.1 |
| 20260508071846 | 40 | 171 | 0.0 | 0.0 | 0.00 | 0.00 | 0.00 | 68 | 1019.0 |
| 20260508071345 | 40 | 146 | 0.0 | 0.0 | 0.00 | 0.00 | 0.00 | 69 | 1019.1 |
| 20260508070842 | 41 | 146 | 0.0 | 0.0 | 0.00 | 0.00 | 0.00 | 68 | 1019.0 |
| 20260508070340 | 41 | 141 | 0.0 | 0.0 | 0.00 | 0.00 | 0.00 | 67 | 1018.8 |
| 20260508065837 | 41 | 143 | 0.0 | 0.0 | 0.00 | 0.00 | 0.00 | 70 | 1019.1 |
| 20260508065335 | 42 | 135 | 0.0 | 0.0 | 0.00 | 0.00 | 0.00 | 67 | 1018.8 |
| 20260508064833 | 42 | 146 | 0.0 | 0.0 | 0.00 | 0.00 | 0.00 | 65 | 1019.0 |
| 20260508064330 | 43 | 137 | 0.0 | 0.0 | 0.00 | 0.00 | 0.00 | 63 | 1018.8 |
| 20260508063828 | 42 | 132 | 0.0 | 0.0 | 0.00 | 0.00 | 0.00 | 68 | 1019.0 |
| 20260508063325 | 42 | 149 | 0.0 | 0.0 | 0.00 | 0.00 | 0.00 | 60 | 1018.7 |
| 20260508062822 | 42 | 149 | 0.0 | 0.0 | 0.00 | 0.00 | 0.00 | 63 | 1018.8 |
| 20260508062320 | 42 | 146 | 0.0 | 0.0 | 0.00 | 0.00 | 0.00 | 64 | 1018.7 |
| 20260508061816 | 42 | 146 | 0.0 | 0.0 | 0.00 | 0.00 | 0.00 | 67 | 1018.8 |
| 20260508061314 | 43 | 125 | 0.0 | 0.0 | 0.00 | 0.00 | 0.00 | 71 | 1018.7 |
| 20260508060810 | 44 | 129 | 0.0 | 0.0 | 0.00 | 0.00 | 0.00 | 65 | 1018.5 |
| 20260508060308 | 44 | 125 | 0.0 | 0.0 | 0.00 | 0.00 | 0.00 | 65 | 1019.0 |
| 20260508055803 | 44 | 204 | 0.0 | 0.0 | 0.00 | 0.00 | 0.00 | 56 | 1018.7 |
| 20260508055301 | 45 | 204 | 0.0 | 0.0 | 0.00 | 0.00 | 0.00 | 57 | 1018.6 |
| 20260508054756 | 44 | 176 | 0.0 | 0.0 | 0.00 | 0.00 | 0.00 | 58 | 1018.6 |
| 20260508054255 | 45 | 140 | 0.0 | 0.0 | 0.00 | 0.00 | 0.00 | 61 | 1018.8 |
| 20260508053751 | 46 | 140 | 0.0 | 0.0 | 0.00 | 0.00 | 0.00 | 63 | 1018.6 |
| 20260508053249 | 46 | 111 | 0.0 | 0.0 | 0.00 | 0.00 | 0.00 | 63 | 1018.8 |
| 20260508052746 | 47 | 135 | 0.0 | 0.0 | 0.00 | 0.00 | 0.00 | 54 | 1018.5 |
| 20260508052243 | 47 | 180 | 0.0 | 0.0 | 0.00 | 0.00 | 0.00 | 53 | 1018.2 |
| 20260508051739 | 48 | 155 | 0.0 | 0.0 | 0.00 | 0.00 | 0.00 | 54 | 1018.6 |
| 20260508051235 | 48 | 155 | 0.0 | 0.0 | 0.00 | 0.00 | 0.00 | 54 | 1018.2 |
| 20260508050731 | 49 | 132 | 0.0 | 0.0 | 0.00 | 0.00 | 0.00 | 50 | 1018.5 |
| 20260508050229 | 50 | 194 | 0.0 | 0.0 | 0.00 | 0.00 | 0.00 | 47 | 1018.5 |
| 20260508045724 | 50 | 151 | 0.0 | 0.0 | 0.00 | 0.00 | 0.00 | 47 | 1018.6 |